createdAt,value
2023-08-13T00:01:01.746Z,7.00
2023-08-13T00:03:28.272Z,10.07
2023-08-13T00:05:54.879Z,7.53
2023-08-13T00:08:21.353Z,10.32
2023-08-13T00:10:49.244Z,9.85
2023-08-13T00:13:15.834Z,9.13
2023-08-13T00:15:42.314Z,9.68
2023-08-13T00:18:08.861Z,10.95
2023-08-13T00:20:35.748Z,9.32
2023-08-13T00:23:02.287Z,12.48
2023-08-13T00:25:28.758Z,14.55
2023-08-13T00:27:56.559Z,20.85
2023-08-13T00:30:23.036Z,9.98
2023-08-13T00:32:49.567Z,6.72
2023-08-13T00:35:16.040Z,8.32
2023-08-13T00:37:42.540Z,10.13
2023-08-13T00:40:11.694Z,6.68
2023-08-13T00:42:38.199Z,12.57
2023-08-13T00:45:06.920Z,13.63
2023-08-13T00:47:33.556Z,7.63
2023-08-13T00:50:00.080Z,7.28
2023-08-13T00:52:26.570Z,13.68
2023-08-13T00:54:53.051Z,10.15
2023-08-13T00:57:19.512Z,8.10
2023-08-13T00:59:46.475Z,7.63
2023-08-13T01:02:14.598Z,14.80
2023-08-13T01:04:41.181Z,9.77
2023-08-13T01:07:11.889Z,10.60
2023-08-13T01:09:42.963Z,10.63
2023-08-13T01:12:15.266Z,7.97
2023-08-13T01:14:44.288Z,13.40
2023-08-13T01:17:12.051Z,5.18
2023-08-13T01:19:39.875Z,7.30
2023-08-13T01:22:06.432Z,13.45
2023-08-13T01:24:34.254Z,11.52
2023-08-13T01:27:04.472Z,7.65
2023-08-13T01:29:33.905Z,6.65
2023-08-13T01:32:01.552Z,8.25
2023-08-13T01:34:28.409Z,13.75
2023-08-13T01:36:55.345Z,7.90
2023-08-13T01:39:22.035Z,7.90
2023-08-13T01:41:53.088Z,6.13
2023-08-13T01:44:19.605Z,9.00
2023-08-13T01:46:46.096Z,9.57
2023-08-13T01:49:12.672Z,9.35
2023-08-13T01:51:39.132Z,7.18
2023-08-13T01:54:05.719Z,10.63
2023-08-13T01:56:32.143Z,12.40
2023-08-13T01:58:59.970Z,10.40
2023-08-13T02:01:26.524Z,14.77
2023-08-13T02:03:52.975Z,13.27
2023-08-13T02:06:19.468Z,11.27
2023-08-13T02:08:45.941Z,13.43
2023-08-13T02:11:12.449Z,10.93
2023-08-13T02:13:38.895Z,9.05
2023-08-13T02:16:06.846Z,6.60
2023-08-13T02:18:33.447Z,10.18
2023-08-13T02:21:00.031Z,8.07
2023-08-13T02:23:26.518Z,13.75
2023-08-13T02:25:53.096Z,9.50
2023-08-13T02:28:19.561Z,8.20
2023-08-13T02:30:46.053Z,10.18
2023-08-13T02:33:14.114Z,11.27
2023-08-13T02:35:40.526Z,7.53
2023-08-13T02:38:07.009Z,8.55
2023-08-13T02:40:33.475Z,8.35
2023-08-13T02:42:59.940Z,11.70
2023-08-13T02:45:26.394Z,13.25
2023-08-13T02:47:52.939Z,8.95
2023-08-13T02:50:20.842Z,10.43
2023-08-13T02:52:47.360Z,6.82
2023-08-13T02:55:13.849Z,9.15
2023-08-13T02:57:46.802Z,7.50
2023-08-13T03:00:23.402Z,10.65
2023-08-13T03:02:49.919Z,8.88
2023-08-13T03:05:16.569Z,11.75
2023-08-13T03:07:44.429Z,10.90
2023-08-13T03:10:10.896Z,10.88
2023-08-13T03:12:37.366Z,9.82
2023-08-13T03:15:04.064Z,6.57
2023-08-13T03:17:30.715Z,17.30
2023-08-13T03:19:57.261Z,9.48
2023-08-13T03:22:23.776Z,9.60
2023-08-13T03:24:51.630Z,9.02
2023-08-13T03:27:18.077Z,8.85
2023-08-13T03:29:44.502Z,7.47
2023-08-13T03:32:10.987Z,6.47
2023-08-13T03:34:37.398Z,9.75
2023-08-13T03:37:03.887Z,6.82
2023-08-13T03:39:30.313Z,6.05
2023-08-13T03:41:58.145Z,6.60
2023-08-13T03:44:24.856Z,9.00
2023-08-13T03:46:51.312Z,10.57
2023-08-13T03:49:17.765Z,8.45
2023-08-13T03:51:44.190Z,8.38
2023-08-13T03:54:10.686Z,12.45
2023-08-13T03:56:37.238Z,10.15
2023-08-13T03:59:05.172Z,10.00
2023-08-13T04:01:31.747Z,11.80
2023-08-13T04:03:59.721Z,12.95
2023-08-13T04:06:26.427Z,13.98
2023-08-13T04:08:52.858Z,12.02
2023-08-13T04:11:19.362Z,11.95
2023-08-13T04:13:45.864Z,9.02
2023-08-13T04:16:13.666Z,11.48
2023-08-13T04:18:40.157Z,12.63
2023-08-13T04:21:06.586Z,16.65
2023-08-13T04:23:33.151Z,12.77
2023-08-13T04:25:59.638Z,10.25
2023-08-13T04:28:26.088Z,10.57
2023-08-13T04:30:52.535Z,11.40
2023-08-13T04:33:22.266Z,9.10
2023-08-13T04:35:52.458Z,13.52
2023-08-13T04:38:18.922Z,7.20
2023-08-13T04:40:46.950Z,8.38
2023-08-13T04:43:13.350Z,11.15
2023-08-13T04:45:39.897Z,8.30
2023-08-13T04:48:06.548Z,14.18
2023-08-13T04:50:34.631Z,8.63
2023-08-13T04:53:01.083Z,8.75
2023-08-13T04:55:27.590Z,7.70
2023-08-13T04:57:54.073Z,6.93
2023-08-13T05:00:20.498Z,10.18
2023-08-13T05:02:47.060Z,7.72
2023-08-13T05:05:13.605Z,7.65
2023-08-13T05:07:41.436Z,8.68
2023-08-13T05:10:08.497Z,6.80
2023-08-13T05:12:34.975Z,8.40
2023-08-13T05:15:01.485Z,7.93
2023-08-13T05:17:27.949Z,11.75
2023-08-13T05:19:54.423Z,8.00
2023-08-13T05:22:21.100Z,8.75
2023-08-13T05:24:48.946Z,10.68
2023-08-13T05:27:15.464Z,7.75
2023-08-13T05:29:42.172Z,17.80
2023-08-13T05:32:08.645Z,11.63
2023-08-13T05:34:35.159Z,12.27
2023-08-13T05:37:01.597Z,11.40
2023-08-13T05:39:28.107Z,14.82
2023-08-13T05:41:55.923Z,10.85
2023-08-13T05:44:22.395Z,11.25
2023-08-13T05:46:48.918Z,10.65
2023-08-13T05:49:15.408Z,9.35
2023-08-13T05:51:41.969Z,9.90
2023-08-13T05:54:08.374Z,11.00
2023-08-13T05:56:34.803Z,8.88
2023-08-13T05:59:02.929Z,13.05
2023-08-13T06:01:29.382Z,9.57
2023-08-13T06:03:56.279Z,9.48
2023-08-13T06:06:22.931Z,12.02
2023-08-13T06:08:49.391Z,12.80
2023-08-13T06:11:15.907Z,11.48
2023-08-13T06:13:42.360Z,9.50
2023-08-13T06:16:10.307Z,14.00
2023-08-13T06:18:36.839Z,8.75
2023-08-13T06:21:03.415Z,9.95
2023-08-13T06:23:29.857Z,10.23
2023-08-13T06:25:56.521Z,9.45
2023-08-13T06:28:23.015Z,9.27
2023-08-13T06:30:50.784Z,9.95
2023-08-13T06:33:18.574Z,10.82
2023-08-13T06:35:45.537Z,15.38
2023-08-13T06:38:12.000Z,14.55
2023-08-13T06:40:40.682Z,11.77
2023-08-13T06:43:07.159Z,10.93
2023-08-13T06:45:33.781Z,12.55
2023-08-13T06:48:00.294Z,10.85
2023-08-13T06:50:28.226Z,11.32
2023-08-13T06:52:54.820Z,11.18
2023-08-13T06:55:21.296Z,15.55
2023-08-13T06:57:47.904Z,14.65
2023-08-13T07:00:14.551Z,9.57
2023-08-13T07:02:41.042Z,11.93
2023-08-13T07:05:09.595Z,9.43
2023-08-13T07:07:37.550Z,16.15
2023-08-13T07:10:04.166Z,13.05
2023-08-13T07:12:30.622Z,9.77
2023-08-13T07:14:57.104Z,11.52
2023-08-13T07:17:23.577Z,10.70
2023-08-13T07:19:50.226Z,10.88
2023-08-13T07:22:16.993Z,10.70
2023-08-13T07:24:45.095Z,11.95
2023-08-13T07:27:11.836Z,13.48
2023-08-13T07:29:38.353Z,18.52
2023-08-13T07:32:06.160Z,11.73
2023-08-13T07:34:32.970Z,12.40
2023-08-13T07:36:59.537Z,12.02
2023-08-13T07:39:26.048Z,13.55
2023-08-13T07:41:53.935Z,15.18
2023-08-13T07:44:20.881Z,11.85
2023-08-13T07:46:47.673Z,16.25
2023-08-13T07:49:14.577Z,9.00
2023-08-13T07:51:41.034Z,9.05
2023-08-13T07:54:07.556Z,10.73
2023-08-13T07:56:34.040Z,9.60
2023-08-13T07:59:01.960Z,14.35
2023-08-13T08:01:28.666Z,11.52
2023-08-13T08:03:55.147Z,14.07
2023-08-13T08:06:21.658Z,13.65
2023-08-13T08:08:48.159Z,11.95
2023-08-13T08:11:14.711Z,13.55
2023-08-13T08:13:41.135Z,14.48
2023-08-13T08:16:09.560Z,11.90
2023-08-13T08:18:36.051Z,8.47
2023-08-13T08:21:02.541Z,10.95
2023-08-13T08:23:29.114Z,11.02
2023-08-13T08:25:56.791Z,11.27
2023-08-13T08:28:23.340Z,14.57
2023-08-13T08:30:51.065Z,12.07
2023-08-13T08:33:18.945Z,9.20
2023-08-13T08:35:45.601Z,10.57
2023-08-13T08:38:13.797Z,14.10
2023-08-13T08:40:42.919Z,11.48
2023-08-13T08:43:11.152Z,14.40
2023-08-13T08:45:46.106Z,44.92
2023-08-13T08:51:48.283Z,42.03
2023-08-13T08:57:56.854Z,11.57
2023-08-13T09:00:55.919Z,21.40
2023-08-13T09:13:49.930Z,13.45
2023-08-13T09:16:29.128Z,9.00
2023-08-13T09:27:07.380Z,11.63
2023-08-13T09:27:53.475Z,9.77
2023-08-13T09:33:42.803Z,17.77
2023-08-13T09:36:55.932Z,12.55
2023-08-13T09:39:47.414Z,15.90
2023-08-13T09:45:32.484Z,9.35
2023-08-13T09:48:48.476Z,12.80
2023-08-13T09:51:44.485Z,11.57
2023-08-13T09:54:32.951Z,12.35
2023-08-13T10:11:16.956Z,12.65
2023-08-13T10:13:54.629Z,10.63
2023-08-13T10:38:47.543Z,9.70
2023-08-13T10:41:42.480Z,10.23
2023-08-13T10:48:37.886Z,13.82
2023-08-13T10:50:48.620Z,14.23
2023-08-13T10:53:34.589Z,12.45
2023-08-13T10:56:07.173Z,17.65
2023-08-13T10:58:46.404Z,16.70
2023-08-13T11:04:19.631Z,12.77
2023-08-13T11:07:02.144Z,16.15
2023-08-13T11:19:27.980Z,13.27
2023-08-13T11:28:45.214Z,18.25
2023-08-13T11:34:47.435Z,15.18
2023-08-13T11:37:30.506Z,11.23
2023-08-13T11:40:02.202Z,14.23
2023-08-13T11:42:45.224Z,12.18
2023-08-13T12:07:39.621Z,14.65
2023-08-13T12:10:14.027Z,12.32
2023-08-13T12:25:00.707Z,10.88
2023-08-13T12:27:46.980Z,8.65
2023-08-13T12:30:18.747Z,12.32
2023-08-13T12:33:12.243Z,11.88
2023-08-13T12:47:54.415Z,12.50
2023-08-13T12:50:33.074Z,11.88
2023-08-13T12:53:40.694Z,13.32
2023-08-13T12:57:42.649Z,13.25
2023-08-13T12:59:19.435Z,14.07
2023-08-13T13:04:40.554Z,12.02
2023-08-13T13:07:15.820Z,11.13
2023-08-13T13:09:47.458Z,15.35
2023-08-13T13:12:15.037Z,10.13
2023-08-13T13:14:46.731Z,14.40
2023-08-13T13:17:15.466Z,13.07
2023-08-13T13:19:55.728Z,8.13
2023-08-13T13:23:01.485Z,10.80
2023-08-13T13:25:28.013Z,10.13
2023-08-13T13:27:57.128Z,10.27
2023-08-13T13:33:01.820Z,8.57
2023-08-13T13:35:29.840Z,9.18
2023-08-13T13:37:56.669Z,9.68
2023-08-13T13:40:23.475Z,11.48
2023-08-13T13:42:51.987Z,13.15
2023-08-13T13:45:25.321Z,7.85
2023-08-13T13:48:10.324Z,13.82
2023-08-13T13:56:48.481Z,11.75
2023-08-13T13:59:13.452Z,8.82
2023-08-13T14:01:43.202Z,11.32
2023-08-13T14:04:12.239Z,8.70
2023-08-13T16:11:46.464Z,12.27
2023-08-13T17:32:00.697Z,13.60
2023-08-13T17:41:06.647Z,13.15
2023-08-13T17:46:41.003Z,17.45
2023-08-13T17:49:08.027Z,14.88
2023-08-13T17:51:41.566Z,15.40
2023-08-13T17:54:14.616Z,20.33
2023-08-13T17:57:44.460Z,17.33
2023-08-13T18:00:06.587Z,13.20
2023-08-13T18:09:13.662Z,19.25
2023-08-13T18:15:02.289Z,12.30
2023-08-13T18:17:31.454Z,15.93
2023-08-13T18:22:26.747Z,10.70
2023-08-13T18:24:53.225Z,14.80
2023-08-13T18:27:19.945Z,14.85
2023-08-13T18:29:46.671Z,17.02
2023-08-13T18:32:13.195Z,18.00
2023-08-13T18:34:40.983Z,18.77
2023-08-13T18:37:07.427Z,15.93
2023-08-13T18:39:34.553Z,16.65
2023-08-13T18:42:01.036Z,18.55
2023-08-13T18:44:27.535Z,18.63
2023-08-13T18:46:54.048Z,17.02
2023-08-13T18:49:20.914Z,20.48
2023-08-13T18:51:48.822Z,27.33
2023-08-13T18:54:15.261Z,20.55
2023-08-13T18:56:41.766Z,22.67
2023-08-13T18:59:08.291Z,20.63
2023-08-13T19:01:34.785Z,17.25
2023-08-13T19:04:01.220Z,17.08
2023-08-13T19:06:27.690Z,18.90
2023-08-13T19:08:55.581Z,22.45
2023-08-13T19:11:22.045Z,19.25
2023-08-13T19:13:48.515Z,20.08
2023-08-13T19:16:15.007Z,22.48
2023-08-13T19:18:41.529Z,21.02
2023-08-13T19:21:07.973Z,21.77
2023-08-13T19:23:35.226Z,20.23
2023-08-13T19:26:03.737Z,26.85
2023-08-13T19:28:30.198Z,26.90
2023-08-13T19:30:56.747Z,32.35
2023-08-13T19:33:23.197Z,35.83
2023-08-13T19:35:49.902Z,30.38
2023-08-13T19:38:18.778Z,28.98
2023-08-13T19:40:45.252Z,27.65
2023-08-13T19:43:14.195Z,31.33
2023-08-13T19:45:42.418Z,33.90
2023-08-13T19:48:08.935Z,35.80
2023-08-13T19:50:38.894Z,34.55
2023-08-13T19:53:06.383Z,38.30
2023-08-13T19:55:33.493Z,32.88
2023-08-13T19:57:59.949Z,36.35
2023-08-13T20:00:27.772Z,36.35
2023-08-13T20:02:54.308Z,34.58
2023-08-13T20:05:20.994Z,32.75
2023-08-13T20:07:47.484Z,33.42
2023-08-13T20:10:13.955Z,33.10
2023-08-13T20:12:40.404Z,26.13
2023-08-13T20:15:07.601Z,26.10
2023-08-13T20:17:35.664Z,27.80
2023-08-13T20:20:02.414Z,22.88
2023-08-13T20:22:28.919Z,24.70
2023-08-13T20:24:55.357Z,19.05
2023-08-13T20:27:21.829Z,22.38
2023-08-13T20:29:48.587Z,27.92
2023-08-13T20:32:16.731Z,28.77
2023-08-13T20:34:45.106Z,29.92
2023-08-13T20:37:12.613Z,23.80
2023-08-13T20:39:42.000Z,24.80
2023-08-13T20:42:13.396Z,26.05
2023-08-13T20:44:50.643Z,23.15
2023-08-13T20:47:23.617Z,26.15
2023-08-13T20:49:51.849Z,21.08
2023-08-13T20:52:19.239Z,21.90
2023-08-13T20:54:48.777Z,20.40
2023-08-13T20:57:15.350Z,25.90
2023-08-13T20:59:48.025Z,23.73
2023-08-13T21:02:21.506Z,24.00
2023-08-13T21:04:48.988Z,36.08
2023-08-13T21:07:16.820Z,22.65
2023-08-13T21:09:43.305Z,22.80
2023-08-13T21:12:09.857Z,23.20
2023-08-13T21:14:36.421Z,24.05
2023-08-13T21:17:02.969Z,25.27
2023-08-13T21:19:31.066Z,21.23
2023-08-13T21:21:57.813Z,26.20
2023-08-13T21:24:27.905Z,23.17
2023-08-13T21:26:55.085Z,23.63
2023-08-13T21:29:21.752Z,20.52
2023-08-13T21:31:49.429Z,22.08
2023-08-13T21:34:16.272Z,32.10
2023-08-13T21:36:42.837Z,22.60
2023-08-13T21:39:09.822Z,23.92
2023-08-13T21:41:45.698Z,28.83
2023-08-13T21:44:12.219Z,24.52
2023-08-13T21:46:39.006Z,26.58
2023-08-13T21:49:05.648Z,22.20
2023-08-13T21:51:32.570Z,29.40
2023-08-13T21:53:59.305Z,26.33
2023-08-13T21:56:25.876Z,34.58
2023-08-13T21:58:53.702Z,22.35
2023-08-13T22:01:20.170Z,32.35
2023-08-13T22:03:46.764Z,38.67
2023-08-13T22:06:13.345Z,25.65
2023-08-13T22:08:39.808Z,29.30
2023-08-13T22:11:06.238Z,25.20
2023-08-13T22:13:32.744Z,25.40
2023-08-13T22:16:00.649Z,32.55
2023-08-13T22:18:27.266Z,32.58
2023-08-13T22:20:53.760Z,28.13
2023-08-13T22:23:20.180Z,30.23
2023-08-13T22:25:46.689Z,28.30
2023-08-13T22:28:13.099Z,29.52
2023-08-13T22:30:39.708Z,25.67
2023-08-13T22:33:07.843Z,25.90
2023-08-13T22:35:34.425Z,32.00
2023-08-13T22:38:00.901Z,32.63
2023-08-13T22:40:27.345Z,30.05
2023-08-13T22:42:53.757Z,27.42
2023-08-13T22:45:20.235Z,30.77
2023-08-13T22:47:46.696Z,31.27
2023-08-13T22:50:14.697Z,29.63
2023-08-13T22:52:41.395Z,27.42
2023-08-13T22:55:08.451Z,24.45
2023-08-13T22:57:34.898Z,27.38
2023-08-13T23:00:01.382Z,27.38
2023-08-13T23:02:27.861Z,30.52
2023-08-13T23:04:54.301Z,25.48
2023-08-13T23:07:22.110Z,32.67
2023-08-13T23:09:48.811Z,31.15
2023-08-13T23:12:15.680Z,29.63
2023-08-13T23:14:42.646Z,27.13
2023-08-13T23:17:09.411Z,27.35
2023-08-13T23:19:36.072Z,26.13
2023-08-13T23:22:02.639Z,26.15
2023-08-13T23:24:32.910Z,29.58
2023-08-13T23:26:59.735Z,25.85
2023-08-13T23:29:26.148Z,26.00
2023-08-13T23:31:52.755Z,27.50
2023-08-13T23:34:19.309Z,29.35
2023-08-13T23:36:45.867Z,30.38
2023-08-13T23:39:12.355Z,30.85
2023-08-13T23:41:41.074Z,23.17
2023-08-13T23:44:07.989Z,31.70
2023-08-13T23:46:34.456Z,24.33
2023-08-13T23:49:01.093Z,26.02
2023-08-13T23:51:27.559Z,24.38
2023-08-13T23:53:53.987Z,23.85
2023-08-13T23:56:20.472Z,28.05
2023-08-13T23:58:48.318Z,27.13
